Time;durP1;ratioP1;P1;durP2;ratioP2;P2;SDS_P1;SDS_P2;PMS_P1;PMS_P2;Temp;Humidity;BMP_temperature;BMP_pressure;BME280_temperature;BME280_humidity;BME280_pressure;Samples;Min_cycle;Max_cycle;Signal;HPM_P1;HPM_P2
2022/06/20 04:31:18;;;;;;;;;20.25;18.00;;;;;20.19;67.29;100818.50;1419370;26;46426;-71
2022/06/20 04:33:58;;;;;;;;;20.25;20.25;;;;;20.21;66.75;100821.09;5033160;28;45459;-72
2022/06/20 04:36:33;;;;;;;;;18.00;18.00;;;;;20.18;66.28;100814.03;5032556;28;46119;-71
2022/06/20 04:39:24;;;;;;;;;22.25;20.25;;;;;20.22;66.37;100826.41;5033049;28;45313;-71
2022/06/20 04:42:01;;;;;;;;;22.50;22.25;;;;;20.22;65.39;100826.41;5035325;28;45394;-71
2022/06/20 04:44:46;;;;;;;;;18.00;18.00;;;;;20.20;65.81;100844.72;5036508;28;45284;-71
2022/06/20 04:47:37;;;;;;;;;20.50;20.50;;;;;20.19;65.23;100851.16;5036579;28;46130;-72
2022/06/20 04:50:04;;;;;;;;;26.75;21.75;;;;;20.15;64.75;100859.72;5036518;28;45383;-70
2022/06/20 04:52:31;;;;;;;;;24.25;21.25;;;;;20.05;64.80;100843.28;5036363;28;45358;-71
2022/06/20 04:54:57;;;;;;;;;24.75;23.25;;;;;20.14;64.23;100858.00;5036075;28;45431;-70
2022/06/20 04:57:25;;;;;;;;;27.00;23.50;;;;;20.10;64.76;100864.66;5036236;28;46124;-71
2022/06/20 04:59:54;;;;;;;;;24.75;21.75;;;;;20.17;64.59;100869.47;5033851;28;45191;-72
2022/06/20 05:02:22;;;;;;;;;26.00;23.00;;;;;20.21;64.69;100873.69;5032726;28;45327;-71
2022/06/20 05:04:51;;;;;;;;;17.50;17.50;;;;;20.26;64.14;100884.16;5023289;28;45254;-71
2022/06/20 05:07:25;;;;;;;;;21.00;19.25;;;;;20.19;63.80;100878.38;5036289;28;46167;-72
2022/06/20 05:10:23;;;;;;;;;25.00;24.50;;;;;20.18;63.60;100881.22;5036348;28;45384;-72
2022/06/20 05:13:04;;;;;;;;;20.75;17.75;;;;;20.23;63.87;100890.75;5035935;28;45510;-72
2022/06/20 05:15:45;;;;;;;;;18.25;17.25;;;;;20.18;63.29;100883.94;5035821;28;45388;-71
2022/06/20 05:18:25;;;;;;;;;22.00;22.00;;;;;20.16;63.61;100892.22;5035946;28;45332;-71
2022/06/20 05:20:56;;;;;;;;;22.00;19.50;;;;;20.13;63.97;100891.66;5035889;28;45419;-72
2022/06/20 05:23:42;;;;;;;;;18.75;17.75;;;;;20.12;64.28;100888.06;5035856;28;45747;-73
2022/06/20 05:26:14;;;;;;;;;20.00;18.50;;;;;20.14;63.69;100885.22;5017791;28;46983;-72
2022/06/20 05:28:40;;;;;;;;;24.00;19.25;;;;;20.10;64.05;100873.69;5035730;28;45398;-71
2022/06/20 05:31:06;;;;;;;;;23.50;20.00;;;;;19.99;63.60;100850.09;5017385;28;45501;-71
2022/06/20 05:33:41;;;;;;;;;20.00;17.50;;;;;20.13;63.88;100897.97;5032681;28;45571;-72
2022/06/20 05:36:12;;;;;;;;;22.25;20.75;;;;;20.14;63.66;100888.81;5054931;28;45522;-74
2022/06/20 05:39:07;;;;;;;;;20.00;19.00;;;;;20.14;63.46;100896.09;5050884;28;46280;-72
2022/06/20 05:41:33;;;;;;;;;17.00;16.25;;;;;20.14;63.95;100907.00;5033105;28;45489;-72
2022/06/20 05:43:59;;;;;;;;;17.75;15.25;;;;;20.13;63.45;100914.28;5038607;28;45630;-72
2022/06/20 05:46:35;;;;;;;;;17.75;17.25;;;;;20.14;63.37;100920.59;5035346;28;46391;-72
2022/06/20 05:49:09;;;;;;;;;17.75;16.25;;;;;20.14;63.39;100920.59;5035385;28;46282;-73
2022/06/20 05:51:38;;;;;;;;;19.75;15.75;;;;;20.17;63.44;100926.63;5033936;28;45626;-71
2022/06/20 05:54:25;;;;;;;;;16.25;15.50;;;;;20.19;63.74;100923.78;5035566;28;45308;-72
2022/06/20 05:57:13;;;;;;;;;16.00;16.00;;;;;20.18;63.47;100920.19;5023529;28;45277;-72
2022/06/20 05:59:39;;;;;;;;;13.25;13.25;;;;;20.28;64.04;100934.78;5035354;28;46057;-71
2022/06/20 06:02:16;;;;;;;;;17.50;15.25;;;;;20.39;63.31;100936.66;5024560;28;45368;-73
2022/06/20 06:05:00;;;;;;;;;17.00;17.00;;;;;20.41;62.38;100944.69;5015362;28;45309;-71
2022/06/20 06:07:36;;;;;;;;;17.25;16.25;;;;;20.44;62.03;100945.28;5014977;28;45381;-73
2022/06/20 06:10:19;;;;;;;;;14.25;14.25;;;;;20.35;61.77;100922.41;5015158;28;45423;-73
2022/06/20 06:12:52;;;;;;;;;16.75;14.50;;;;;20.46;61.70;100937.88;5015502;28;45511;-73
2022/06/20 06:16:46;;;;;;;;;17.25;16.50;;;;;20.50;61.75;100952.94;5015548;28;45311;-73
2022/06/20 06:18:39;;;;;;;;;15.75;15.75;;;;;20.54;61.55;100961.72;5027357;28;45419;-73
2022/06/20 06:21:05;;;;;;;;;15.00;14.50;;;;;20.58;61.70;100964.09;5034576;28;46211;-73
2022/06/20 06:23:31;;;;;;;;;16.25;16.25;;;;;20.54;61.02;100957.16;5034669;28;45596;-74
2022/06/20 06:25:56;;;;;;;;;16.50;16.00;;;;;20.56;60.97;100970.66;5034929;28;45390;-73
2022/06/20 06:28:25;;;;;;;;;13.50;12.75;;;;;20.51;60.71;100962.84;5035011;28;45396;-71
2022/06/20 06:31:09;;;;;;;;;13.00;13.00;;;;;20.55;60.40;100968.91;5034644;28;46221;-73
2022/06/20 06:34:03;;;;;;;;;14.00;12.25;;;;;20.54;60.12;100976.22;5034529;28;45404;-73
2022/06/20 06:36:49;;;;;;;;;11.75;10.25;;;;;20.46;60.24;100973.28;5015005;28;45403;-72
2022/06/20 06:39:29;;;;;;;;;12.75;12.75;;;;;20.46;60.36;100977.84;5034708;28;45490;-73
2022/06/20 06:41:57;;;;;;;;;12.25;12.25;;;;;20.41;60.46;100970.06;5034548;28;45367;-73
2022/06/20 06:44:40;;;;;;;;;10.50;10.50;;;;;20.49;60.09;100992.09;5034502;28;45301;-73
2022/06/20 06:47:23;;;;;;;;;11.00;9.00;;;;;20.41;60.24;100986.41;5034774;28;45580;-71
2022/06/20 06:49:56;;;;;;;;;13.75;13.00;;;;;20.41;59.97;100999.16;5034125;28;45494;-73
2022/06/20 06:52:44;;;;;;;;;12.25;12.00;;;;;20.27;59.70;100992.09;5033969;28;45637;-73
2022/06/20 06:55:54;;;;;;;;;11.75;10.25;;;;;20.35;59.66;101009.56;5016422;28;45470;-71
2022/06/20 06:58:33;;;;;;;;;11.50;9.50;;;;;20.28;59.83;101018.31;5032496;28;45586;-72
2022/06/20 07:01:11;;;;;;;;;11.25;11.25;;;;;20.17;60.34;101002.00;5032624;28;45443;-73
2022/06/20 07:03:56;;;;;;;;;10.50;10.25;;;;;20.19;60.56;101021.78;5014015;28;45542;-73
2022/06/20 07:06:28;;;;;;;;;12.00;8.00;;;;;20.10;60.77;101025.25;5014206;28;45344;-71
2022/06/20 07:09:02;;;;;;;;;10.00;9.00;;;;;20.10;60.18;101030.72;5011574;28;45413;-72
2022/06/20 07:11:32;;;;;;;;;11.25;10.00;;;;;20.08;60.38;101038.13;5018988;28;45875;-75
2022/06/20 07:14:15;;;;;;;;;10.00;10.00;;;;;20.05;60.23;101030.22;5030426;28;45294;-72
2022/06/20 07:17:00;;;;;;;;;10.25;8.00;;;;;20.04;60.03;101040.25;5033466;28;45377;-74
2022/06/20 07:19:26;;;;;;;;;11.50;11.50;;;;;20.01;59.96;101040.47;5020899;28;45290;-73
2022/06/20 07:21:56;;;;;;;;;12.00;12.00;;;;;19.86;60.22;101018.09;5033290;28;46178;-73
2022/06/20 07:24:26;;;;;;;;;15.25;14.75;;;;;19.93;60.40;101032.06;5033892;28;45440;-74
2022/06/20 07:27:08;;;;;;;;;17.25;13.75;;;;;19.93;60.43;101038.38;5033339;28;45432;-74
2022/06/20 07:29:40;;;;;;;;;17.25;16.00;;;;;19.93;60.44;101057.44;5033697;28;45336;-73
2022/06/20 07:32:12;;;;;;;;;13.75;13.75;;;;;19.84;60.42;101063.59;5032283;28;45399;-75
2022/06/20 07:34:45;;;;;;;;;11.25;11.25;;;;;19.87;60.79;101068.81;5031965;28;45506;-76
2022/06/20 07:37:16;;;;;;;;;11.50;11.50;;;;;19.86;60.65;101058.03;5031182;28;45232;-72
2022/06/20 07:39:44;;;;;;;;;11.50;11.50;;;;;19.85;61.04;101067.19;5031279;28;45356;-73
2022/06/20 07:42:18;;;;;;;;;16.25;15.50;;;;;19.82;61.04;101070.19;5000828;28;46042;-74
2022/06/20 07:44:51;;;;;;;;;11.00;11.00;;;;;19.79;60.75;101073.13;5031788;28;46119;-74
2022/06/20 07:47:24;;;;;;;;;15.75;14.50;;;;;19.54;60.85;101034.28;5032151;28;45299;-73
2022/06/20 07:49:58;;;;;;;;;13.00;13.00;;;;;19.72;60.84;101070.03;5032041;28;45438;-75
2022/06/20 07:52:30;;;;;;;;;14.50;14.00;;;;;19.74;61.09;101081.63;5032478;28;45242;-75
2022/06/20 07:54:59;;;;;;;;;12.50;11.50;;;;;19.72;60.99;101077.34;5032010;28;46302;-72
2022/06/20 07:57:40;;;;;;;;;16.25;15.00;;;;;19.57;60.63;101054.91;5032440;28;45490;-75
2022/06/20 08:00:13;;;;;;;;;16.00;14.50;;;;;19.75;60.74;101082.50;5032514;28;45360;-74
2022/06/20 08:02:38;;;;;;;;;14.50;14.00;;;;;19.75;60.88;101079.78;5016651;28;45376;-74
2022/06/20 08:05:06;;;;;;;;;12.25;11.25;;;;;19.69;60.80;101075.72;5012267;28;46160;-74
2022/06/20 08:07:41;;;;;;;;;17.50;11.75;;;;;19.73;60.92;101087.22;5014458;28;45353;-74
2022/06/20 08:10:15;;;;;;;;;16.00;14.25;;;;;19.70;61.25;101084.75;5032111;28;45381;-72
2022/06/20 08:12:58;;;;;;;;;13.75;12.50;;;;;19.64;61.08;101078.81;5013728;28;45373;-74
2022/06/20 08:15:28;;;;;;;;;15.25;13.50;;;;;19.60;61.31;101082.72;5033403;28;45343;-74
2022/06/20 08:17:54;;;;;;;;;16.25;10.75;;;;;19.56;61.54;101085.81;5035475;28;45244;-73
2022/06/20 08:20:21;;;;;;;;;14.50;12.25;;;;;19.52;61.60;101076.16;5035675;28;45498;-75
2022/06/20 08:22:56;;;;;;;;;16.25;14.25;;;;;19.61;61.36;101098.06;5036182;28;45514;-75
2022/06/20 08:25:34;;;;;;;;;13.50;12.00;;;;;19.58;61.48;101079.25;5035406;28;45526;-75
2022/06/20 08:28:11;;;;;;;;;15.25;12.00;;;;;19.53;61.76;101067.03;5035463;28;45368;-75
2022/06/20 08:30:47;;;;;;;;;16.00;12.50;;;;;19.58;61.66;101083.81;5035199;28;45337;-75
2022/06/20 08:33:28;;;;;;;;;11.00;11.00;;;;;19.59;61.93;101074.69;4995756;28;1117670;-75
2022/06/20 08:36:02;;;;;;;;;12.75;12.75;;;;;19.61;61.08;101078.16;5015944;28;45564;-73
2022/06/20 08:38:40;;;;;;;;;11.25;9.00;;;;;19.63;61.22;101065.31;5015884;28;45464;-73
2022/06/20 08:41:05;;;;;;;;;16.75;12.00;;;;;19.72;61.05;101072.75;5028055;28;45664;-74
2022/06/20 08:44:07;;;;;;;;;13.50;13.50;;;;;19.79;60.78;101068.56;5036053;28;46052;-74
2022/06/20 08:46:45;;;;;;;;;16.00;12.75;;;;;19.85;60.82;101081.66;5036295;28;45363;-73
2022/06/20 08:49:35;;;;;;;;;14.75;13.50;;;;;19.93;60.30;101084.66;5036235;28;45508;-73
2022/06/20 08:52:19;;;;;;;;;20.00;16.75;;;;;19.95;60.28;101096.28;5035987;28;45474;-74
2022/06/20 08:55:11;;;;;;;;;14.50;13.00;;;;;19.98;60.26;101111.50;5036257;28;45428;-74
2022/06/20 08:57:37;;;;;;;;;12.00;12.00;;;;;19.96;59.94;101108.91;5036376;28;46294;-74
2022/06/20 09:00:40;;;;;;;;;16.50;15.25;;;;;19.93;59.90;101111.00;5035898;28;45359;-73
2022/06/20 09:03:46;;;;;;;;;14.75;14.75;;;;;19.85;59.73;101114.31;5005206;28;45263;-73
2022/06/20 09:06:25;;;;;;;;;15.50;14.25;;;;;19.84;59.75;101126.19;5034612;28;45669;-73
2022/06/20 09:09:35;;;;;;;;;14.75;14.75;;;;;19.85;59.54;101133.38;5017867;28;47201;-73
2022/06/20 09:12:31;;;;;;;;;14.25;14.25;;;;;19.84;59.65;101128.91;5007100;28;45561;-73
2022/06/20 09:14:56;;;;;;;;;12.75;11.25;;;;;19.86;59.70;101128.78;5026192;28;45365;-71
2022/06/20 09:17:43;;;;;;;;;17.25;17.25;;;;;19.86;59.53;101123.34;5035609;28;45514;-74
2022/06/20 09:20:17;;;;;;;;;17.25;15.25;;;;;19.87;59.67;101125.97;5035588;28;45321;-75
2022/06/20 09:22:58;;;;;;;;;14.00;14.00;;;;;19.90;59.67;101119.41;5035371;28;45442;-73
2022/06/20 09:25:35;;;;;;;;;16.50;12.50;;;;;19.96;60.07;101122.50;5035707;28;45427;-73
2022/06/20 09:28:23;;;;;;;;;15.00;15.00;;;;;20.03;59.66;101131.91;5035005;28;45577;-74
2022/06/20 09:30:54;;;;;;;;;17.50;15.50;;;;;20.07;59.48;101140.72;5035191;28;45528;-74
2022/06/20 09:33:40;;;;;;;;;17.25;14.50;;;;;20.10;59.37;101148.63;5033486;28;45528;-74
2022/06/20 09:36:22;;;;;;;;;16.75;14.75;;;;;20.03;58.93;101142.81;5015261;28;45326;-73
2022/06/20 09:39:23;;;;;;;;;20.75;19.25;;;;;20.08;59.08;101153.31;5015089;28;45416;-72
2022/06/20 09:42:17;;;;;;;;;16.50;13.50;;;;;20.14;59.09;101152.84;5000099;28;45573;-74
2022/06/20 09:44:55;;;;;;;;;14.00;12.25;;;;;20.23;59.30;101140.38;5034775;28;45492;-73
2022/06/20 09:48:00;;;;;;;;;14.00;14.00;;;;;20.30;58.89;101133.44;5035363;28;45357;-73
2022/06/20 09:50:52;;;;;;;;;17.00;16.50;;;;;20.37;59.12;101138.28;5035427;28;45483;-73
2022/06/20 09:54:22;;;;;;;;;12.25;12.25;;;;;20.51;59.02;101142.63;5035156;28;46613;-71
2022/06/20 09:57:02;;;;;;;;;14.00;14.00;;;;;20.68;58.50;101143.97;4978342;28;45563;-74
2022/06/20 09:59:45;;;;;;;;;16.25;16.25;;;;;20.70;57.60;101133.81;4975933;28;46931;-74
2022/06/20 10:02:47;;;;;;;;;16.00;15.00;;;;;20.84;58.30;101157.22;5020468;28;45550;-72
2022/06/20 10:05:30;;;;;;;;;17.00;14.00;;;;;20.94;57.82;101156.31;5018361;28;46050;-73
2022/06/20 10:08:24;;;;;;;;;15.75;15.25;;;;;21.04;57.03;101156.44;5034677;28;45384;-74
2022/06/20 10:10:58;;;;;;;;;16.25;14.75;;;;;21.14;56.87;101157.41;5034734;28;45406;-72
2022/06/20 10:13:45;;;;;;;;;14.00;13.75;;;;;21.16;56.51;101147.22;5036183;28;45285;-75
2022/06/20 10:16:28;;;;;;;;;17.75;14.50;;;;;21.26;56.38;101155.53;5015806;28;46019;-76
2022/06/20 10:18:56;;;;;;;;;13.00;13.00;;;;;21.30;56.15;101155.16;5014598;28;45364;-72
2022/06/20 10:21:43;;;;;;;;;14.75;12.75;;;;;21.38;56.40;101163.53;5014903;28;45427;-71
2022/06/20 10:24:31;;;;;;;;;16.25;15.25;;;;;21.42;56.22;101145.94;5014555;28;45400;-73
2022/06/20 10:27:11;;;;;;;;;14.75;14.75;;;;;21.56;55.57;101166.56;5028820;28;45547;-75
2022/06/20 10:29:48;;;;;;;;;14.00;12.25;;;;;21.65;56.01;101162.19;5034616;28;45393;-73
2022/06/20 10:32:35;;;;;;;;;14.75;13.75;;;;;21.76;55.47;101162.16;5032211;28;45419;-71
2022/06/20 10:35:06;;;;;;;;;14.50;14.25;;;;;21.84;55.71;101156.91;5029887;28;45397;-73
2022/06/20 10:37:42;;;;;;;;;22.25;17.25;;;;;21.81;54.80;101143.50;5026824;28;45523;-73
2022/06/20 10:40:20;;;;;;;;;16.75;13.25;;;;;22.02;54.70;101169.00;5026448;28;45415;-71
2022/06/20 10:43:04;;;;;;;;;13.50;13.50;;;;;22.13;54.36;101177.09;5026302;28;45302;-73
2022/06/20 10:45:46;;;;;;;;;20.75;18.00;;;;;22.14;54.08;101184.28;5034284;28;45273;-74
2022/06/20 10:48:15;;;;;;;;;13.50;13.25;;;;;22.15;54.09;101186.03;5034229;28;45392;-73
2022/06/20 10:50:48;;;;;;;;;13.00;13.00;;;;;22.10;53.35;101177.38;5015905;28;45385;-73
2022/06/20 10:53:32;;;;;;;;;18.75;17.50;;;;;22.13;53.53;101195.34;5033941;28;45280;-73
2022/06/20 10:56:16;;;;;;;;;18.50;17.50;;;;;22.06;53.80;101186.81;5033549;28;45408;-73
2022/06/20 10:59:07;;;;;;;;;18.00;16.75;;;;;22.05;53.78;101185.09;5033437;28;45494;-72
2022/06/20 11:01:45;;;;;;;;;20.00;18.00;;;;;22.01;54.35;101180.91;5027517;28;45308;-76
2022/06/20 11:04:26;;;;;;;;;20.75;18.00;;;;;22.10;53.74;101180.09;5010811;28;45416;-74
2022/06/20 11:07:09;;;;;;;;;20.50;19.50;;;;;22.16;53.90;101176.84;5034008;28;45549;-72
2022/06/20 11:09:42;;;;;;;;;19.50;18.50;;;;;22.26;53.54;101175.03;5033592;28;45505;-72
2022/06/20 11:12:20;;;;;;;;;21.25;18.00;;;;;22.41;53.29;101194.66;5033768;28;45406;-78
2022/06/20 11:15:01;;;;;;;;;19.75;17.00;;;;;22.42;53.16;101182.72;5034081;28;45430;-74
2022/06/20 11:17:44;;;;;;;;;24.50;17.25;;;;;22.44;52.85;101190.78;5033658;28;45625;-74
2022/06/20 11:20:34;;;;;;;;;15.50;15.50;;;;;22.47;52.93;101194.09;5034055;28;45462;-73
2022/06/20 11:23:17;;;;;;;;;17.00;15.50;;;;;22.57;53.27;101194.16;5034058;28;45326;-73
2022/06/20 11:26:07;;;;;;;;;19.00;17.50;;;;;22.62;53.75;101194.63;5033584;28;45393;-72
2022/06/20 11:28:54;;;;;;;;;17.50;16.25;;;;;22.68;53.85;101199.53;5018611;28;45545;-73
2022/06/20 11:31:43;;;;;;;;;24.25;18.75;;;;;22.72;52.95;101186.44;5013231;28;45523;-74
2022/06/20 11:34:23;;;;;;;;;21.50;20.75;;;;;22.79;52.37;101184.94;5013685;28;45439;-73
2022/06/20 11:37:07;;;;;;;;;22.25;20.50;;;;;22.83;52.40;101170.84;5013248;28;45503;-74
2022/06/20 11:39:32;;;;;;;;;19.50;19.50;;;;;23.04;51.93;101183.59;5013118;28;45343;-72
2022/06/20 11:42:10;;;;;;;;;20.50;19.00;;;;;23.12;51.97;101187.34;5031764;28;45350;-73
2022/06/20 11:45:05;;;;;;;;;23.00;23.00;;;;;23.18;51.60;101195.00;5033104;28;45444;-72
2022/06/20 11:47:44;;;;;;;;;25.25;19.00;;;;;23.26;51.30;101180.59;5033853;28;45506;-73
2022/06/20 11:50:24;;;;;;;;;12.25;10.75;;;;;23.35;50.55;101177.88;5033995;28;45373;-72
2022/06/20 11:53:04;;;;;;;;;16.75;15.75;;;;;23.40;50.71;101170.09;5036744;28;46323;-72
2022/06/20 11:55:40;;;;;;;;;17.00;16.00;;;;;23.52;51.00;101167.28;5036797;28;45359;-71
2022/06/20 11:58:18;;;;;;;;;14.75;14.75;;;;;23.71;50.74;101172.75;5036784;28;45233;-72
2022/06/20 12:00:43;;;;;;;;;17.50;17.50;;;;;23.85;50.28;101171.44;5036792;28;45178;-72
2022/06/20 12:03:44;;;;;;;;;16.00;15.25;;;;;24.02;49.94;101163.34;5017701;28;46111;-72
2022/06/20 12:06:24;;;;;;;;;18.50;17.75;;;;;24.10;49.38;101174.44;5006767;28;45578;-74
2022/06/20 12:08:59;;;;;;;;;16.00;16.00;;;;;24.08;49.02;101153.66;5030094;28;45558;-74
2022/06/20 12:11:30;;;;;;;;;14.75;13.25;;;;;24.22;49.12;101172.44;5023312;28;45578;-73
2022/06/20 12:14:01;;;;;;;;;26.00;17.25;;;;;24.28;48.53;101169.09;5034798;28;45568;-74
2022/06/20 12:16:41;;;;;;;;;15.00;14.50;;;;;24.39;48.42;101168.06;5035542;28;45361;-73
2022/06/20 12:25:27;;;;;;;;;13.50;11.50;;;;;24.96;46.97;101153.25;5017837;28;45424;-74
2022/06/20 12:27:52;;;;;;;;;14.00;13.50;;;;;25.05;47.28;101159.69;5000352;28;45487;-72
2022/06/20 12:30:18;;;;;;;;;14.50;11.25;;;;;25.13;47.82;101146.06;5034507;28;45261;-73
2022/06/20 12:32:49;;;;;;;;;11.75;11.75;;;;;25.16;46.99;101152.13;5034426;28;45503;-73
2022/06/20 12:35:43;;;;;;;;;11.50;11.00;;;;;25.19;46.72;101150.94;5034669;28;46486;-73
2022/06/20 12:38:27;;;;;;;;;12.25;10.75;;;;;25.25;46.19;101142.09;5032350;28;46139;-73
2022/06/20 12:40:57;;;;;;;;;10.75;9.75;;;;;25.40;46.24;101135.03;5024849;28;45525;-74
2022/06/20 12:43:50;;;;;;;;;13.00;13.00;;;;;25.47;45.73;101127.91;5034134;28;45347;-73
2022/06/20 12:47:00;;;;;;;;;17.50;13.25;;;;;25.50;45.65;101146.81;5034340;28;46296;-75
2022/06/20 12:49:46;;;;;;;;;13.00;11.25;;;;;25.54;45.79;101139.09;5013130;28;46024;-75
2022/06/20 12:52:11;;;;;;;;;11.25;11.00;;;;;25.64;44.89;101126.19;5034192;28;45389;-72
2022/06/20 12:54:51;;;;;;;;;14.00;13.75;;;;;25.79;44.99;101121.84;5031360;28;45513;-75
2022/06/20 12:57:34;;;;;;;;;12.50;11.00;;;;;25.93;44.54;101128.69;5014273;28;45551;-73
2022/06/20 13:00:17;;;;;;;;;10.75;10.75;;;;;26.00;44.03;101132.50;5023655;28;45369;-75
2022/06/20 13:03:00;;;;;;;;;9.50;9.50;;;;;26.15;44.57;101139.13;5033508;28;45686;-74
2022/06/20 13:05:53;;;;;;;;;13.00;10.75;;;;;26.32;44.62;101142.88;5022124;28;45891;-73
2022/06/20 13:08:21;;;;;;;;;10.00;10.00;;;;;26.51;43.82;101145.41;5004126;28;46309;-73
2022/06/20 13:10:57;;;;;;;;;11.25;10.25;;;;;26.65;42.72;101125.53;5018128;28;45485;-72
2022/06/20 13:13:41;;;;;;;;;13.25;11.75;;;;;26.81;42.79;101126.59;5014365;28;45484;-73
2022/06/20 13:16:27;;;;;;;;;9.25;9.25;;;;;26.81;43.05;101127.47;5009053;28;46248;-71
2022/06/20 13:19:17;;;;;;;;;12.00;10.75;;;;;26.81;42.77;101132.97;5029400;28;45460;-73
2022/06/20 13:22:19;;;;;;;;;8.75;8.25;;;;;26.97;42.44;101132.19;5021264;28;45361;-75
2022/06/20 13:25:10;;;;;;;;;10.00;10.00;;;;;27.16;42.08;101129.16;5024520;28;45460;-74
2022/06/20 13:27:43;;;;;;;;;11.00;10.50;;;;;27.08;42.03;101104.38;5014418;28;45428;-73
2022/06/20 13:30:21;;;;;;;;;12.75;10.25;;;;;27.36;42.64;101133.34;5025341;28;45490;-73
2022/06/20 13:33:04;;;;;;;;;12.00;8.00;;;;;27.42;42.36;101145.56;5033060;28;45405;-74
2022/06/20 13:35:46;;;;;;;;;10.25;9.00;;;;;27.36;42.37;101132.47;5033357;28;45279;-72
2022/06/20 13:38:36;;;;;;;;;11.00;9.75;;;;;27.45;42.17;101132.31;5033102;28;45368;-73
2022/06/20 13:41:07;;;;;;;;;11.25;9.50;;;;;27.51;42.20;101125.25;5022290;28;45335;-71
2022/06/20 13:44:02;;;;;;;;;15.25;10.00;;;;;27.68;41.07;101110.50;5013487;28;45297;-72
2022/06/20 13:46:46;;;;;;;;;11.50;9.00;;;;;27.95;40.69;101109.28;5022666;28;45741;-75
2022/06/20 13:49:29;;;;;;;;;13.00;8.00;;;;;28.19;39.92;101109.28;5033243;28;45228;-74
2022/06/20 13:52:06;;;;;;;;;11.75;10.50;;;;;28.39;39.60;101112.50;5020501;28;46238;-74
2022/06/20 13:55:10;;;;;;;;;12.50;10.25;;;;;28.54;39.55;101109.84;5029861;28;45427;-75
2022/06/20 13:57:42;;;;;;;;;9.00;9.00;;;;;28.70;39.07;101109.78;4976954;28;45381;-75
2022/06/20 14:00:16;;;;;;;;;11.50;9.75;;;;;28.71;39.38;101111.50;5016029;28;45562;-74
2022/06/20 14:02:44;;;;;;;;;9.50;9.50;;;;;28.90;38.26;101113.88;5016858;28;45468;-74
2022/06/20 14:05:16;;;;;;;;;9.50;9.50;;;;;29.11;38.20;101102.19;5013992;28;45425;-74
2022/06/20 14:07:45;;;;;;;;;8.75;8.00;;;;;29.23;38.07;101105.41;5012874;28;45482;-72
2022/06/20 14:10:26;;;;;;;;;10.25;7.50;;;;;29.20;37.97;101094.69;5022630;28;45365;-72
2022/06/20 14:12:59;;;;;;;;;8.75;7.00;;;;;29.12;38.37;101084.56;5014291;28;46869;-75
2022/06/20 14:15:32;;;;;;;;;10.75;7.50;;;;;29.36;38.09;101097.38;5032704;28;45356;-73
2022/06/20 14:18:02;;;;;;;;;15.75;10.50;;;;;29.50;37.92;101106.78;5032373;28;45383;-73
2022/06/20 14:20:35;;;;;;;;;7.75;7.00;;;;;29.62;37.36;101108.91;5019324;28;45310;-74
2022/06/20 14:23:04;;;;;;;;;9.00;5.00;;;;;29.69;37.53;101098.84;5015003;28;45695;-72
2022/06/20 14:25:41;;;;;;;;;11.75;11.00;;;;;29.56;36.62;101098.63;5014453;28;45364;-73
2022/06/20 14:28:19;;;;;;;;;8.50;7.25;;;;;29.33;37.35;101109.66;5008820;28;45849;-74
2022/06/20 14:30:47;;;;;;;;;10.75;9.00;;;;;29.20;38.32;101101.09;5034388;28;45518;-71
2022/06/20 14:33:26;;;;;;;;;9.00;7.50;;;;;29.31;38.70;101097.06;5034167;28;46238;-73
2022/06/20 14:36:01;;;;;;;;;9.25;9.25;;;;;29.88;37.05;101104.91;5034329;28;45352;-72
2022/06/20 14:38:32;;;;;;;;;7.00;7.00;;;;;30.35;35.90;101104.63;5034502;28;45262;-72
2022/06/20 14:41:39;;;;;;;;;8.00;8.00;;;;;30.53;35.44;101101.50;5034974;28;45395;-73
2022/06/20 14:43:59;;;;;;;;;9.50;6.75;;;;;30.15;35.94;101071.13;5034268;28;45971;-73
2022/06/20 14:47:05;;;;;;;;;13.25;9.00;;;;;30.19;35.76;101094.59;5034349;28;45341;-72
2022/06/20 14:49:45;;;;;;;;;9.75;9.50;;;;;30.36;35.95;101082.31;5033415;28;45534;-74
2022/06/20 14:52:22;;;;;;;;;9.25;9.25;;;;;30.75;35.10;101078.38;5034181;28;45564;-73
2022/06/20 14:55:20;;;;;;;;;13.50;8.50;;;;;31.28;34.36;101084.56;5011379;28;48753;-73
2022/06/20 14:58:17;;;;;;;;;9.50;7.00;;;;;31.41;34.17;101077.25;5029720;28;45609;-75
2022/06/20 15:01:07;;;;;;;;;10.50;6.25;;;;;31.26;34.01;101061.75;5033979;28;45364;-73
2022/06/20 15:03:57;;;;;;;;;12.75;9.50;;;;;30.93;34.31;101062.22;5023031;28;45802;-72
2022/06/20 15:06:35;;;;;;;;;8.00;7.50;;;;;30.74;35.32;101063.69;5034056;28;45372;-73
2022/06/20 15:09:36;;;;;;;;;7.75;7.75;;;;;30.41;34.92;101070.66;5033907;28;45377;-74
2022/06/20 15:12:37;;;;;;;;;10.00;7.50;;;;;30.21;35.91;101077.78;5002604;28;45435;-72
2022/06/20 15:15:22;;;;;;;;;8.75;7.00;;;;;30.04;36.60;101068.81;5024185;28;45453;-72
2022/06/20 15:18:07;;;;;;;;;7.75;6.75;;;;;29.95;36.63;101068.03;5032680;28;46394;-73
2022/06/20 15:20:37;;;;;;;;;10.75;7.75;;;;;30.15;35.91;101071.13;5031340;28;45419;-74
2022/06/20 15:23:34;;;;;;;;;12.50;7.25;;;;;30.26;36.05;101059.59;5021600;28;45452;-73
2022/06/20 15:26:20;;;;;;;;;10.00;8.00;;;;;30.26;35.66;101062.38;5020164;28;45566;-74
2022/06/20 15:29:01;;;;;;;;;8.50;6.75;;;;;30.27;36.28;101066.84;5033335;28;45341;-73
2022/06/20 15:31:33;;;;;;;;;11.25;5.75;;;;;30.23;36.00;101051.66;5033254;28;45416;-74
2022/06/20 15:34:19;;;;;;;;;8.75;7.00;;;;;30.25;35.15;101060.66;5033615;28;45472;-73
2022/06/20 15:36:49;;;;;;;;;11.50;8.00;;;;;30.24;35.35;101061.69;5033635;28;45618;-73
2022/06/20 15:39:24;;;;;;;;;7.50;7.00;;;;;30.33;35.48;101057.78;5033468;28;46218;-72
2022/06/20 15:44:42;;;;;;;;;9.25;7.25;;;;;30.33;35.32;101043.09;5033825;28;45381;-74
2022/06/20 15:47:07;;;;;;;;;7.50;5.25;;;;;30.47;36.02;101070.75;5033851;28;45660;-74
2022/06/20 15:49:47;;;;;;;;;6.00;6.00;;;;;30.71;35.45;101061.28;5032522;28;46092;-74
2022/06/20 15:52:41;;;;;;;;;6.00;6.00;;;;;30.80;34.98;101054.59;5032911;28;45242;-75
2022/06/20 15:55:34;;;;;;;;;7.00;6.00;;;;;31.01;34.31;101055.69;5033486;28;45225;-75
2022/06/20 15:58:15;;;;;;;;;8.25;6.75;;;;;31.14;34.01;101059.47;5032827;28;45365;-73
2022/06/20 16:00:52;;;;;;;;;7.75;7.50;;;;;31.23;34.07;101059.34;5033365;28;45280;-74
2022/06/20 16:03:40;;;;;;;;;6.00;5.00;;;;;31.18;33.81;101063.59;5021118;28;45471;-74
2022/06/20 16:06:14;;;;;;;;;8.50;6.00;;;;;31.13;33.74;101060.56;5032989;28;45399;-73
2022/06/20 16:09:00;;;;;;;;;6.00;6.00;;;;;30.73;34.00;101048.13;5033182;28;45414;-72
2022/06/20 16:11:39;;;;;;;;;7.00;5.50;;;;;30.46;34.82;101055.19;5032863;28;45364;-74
2022/06/20 16:14:07;;;;;;;;;7.25;6.25;;;;;30.43;34.83;101065.78;5032979;28;45253;-73
2022/06/20 16:16:35;;;;;;;;;5.75;5.75;;;;;30.41;34.35;101054.06;5033393;28;45297;-73
2022/06/20 16:19:07;;;;;;;;;4.50;4.50;;;;;30.43;34.29;101058.34;5033059;28;45633;-72
2022/06/20 16:21:41;;;;;;;;;4.00;4.00;;;;;30.24;34.66;101031.25;5032076;28;46269;-74
2022/06/20 16:24:20;;;;;;;;;4.50;4.50;;;;;30.30;34.43;101063.69;5031468;28;45471;-73
2022/06/20 16:26:49;;;;;;;;;6.25;5.25;;;;;30.12;35.16;101065.97;5032824;28;45475;-75
2022/06/20 16:29:19;;;;;;;;;5.00;5.00;;;;;29.86;35.20;101065.53;5033936;28;45478;-72
2022/06/20 16:31:56;;;;;;;;;6.50;4.75;;;;;29.65;35.16;101064.34;5032863;28;45525;-71
2022/06/20 16:34:34;;;;;;;;;4.25;3.50;;;;;29.50;35.22;101066.22;5033169;28;45409;-73
2022/06/20 16:37:04;;;;;;;;;6.75;4.25;;;;;29.55;35.42;101062.88;5030051;28;45379;-74
2022/06/20 16:39:30;;;;;;;;;7.25;5.00;;;;;29.58;35.80;101068.91;5016788;28;45369;-72
2022/06/20 16:42:22;;;;;;;;;7.25;5.25;;;;;29.54;34.82;101070.31;5034929;28;45542;-73
2022/06/20 16:45:13;;;;;;;;;4.75;4.00;;;;;29.54;35.55;101073.06;5036332;28;45513;-73
2022/06/20 16:47:47;;;;;;;;;6.00;4.00;;;;;29.44;34.89;101068.84;5040480;28;45411;-75